sensor_id;sensor_type;location;lat;lon;timestamp;P1;durP1;ratioP1;P2;durP2;ratioP2
5121;SDS011;2563;52.242;7.956;2023-01-01T00:01:20;13.00;;;5.20;;
5121;SDS011;2563;52.242;7.956;2023-01-01T00:03:49;17.03;;;4.73;;
5121;SDS011;2563;52.242;7.956;2023-01-01T00:06:15;20.83;;;6.00;;
5121;SDS011;2563;52.242;7.956;2023-01-01T00:08:41;13.40;;;4.70;;
5121;SDS011;2563;52.242;7.956;2023-01-01T00:11:07;16.53;;;5.33;;
5121;SDS011;2563;52.242;7.956;2023-01-01T00:13:34;12.93;;;4.80;;
5121;SDS011;2563;52.242;7.956;2023-01-01T00:16:08;8.30;;;4.20;;
5121;SDS011;2563;52.242;7.956;2023-01-01T00:18:35;9.67;;;3.87;;
5121;SDS011;2563;52.242;7.956;2023-01-01T00:21:06;12.47;;;3.63;;
5121;SDS011;2563;52.242;7.956;2023-01-01T00:23:32;10.67;;;3.53;;
5121;SDS011;2563;52.242;7.956;2023-01-01T00:25:58;12.27;;;4.73;;
5121;SDS011;2563;52.242;7.956;2023-01-01T00:28:24;10.80;;;4.30;;
5121;SDS011;2563;52.242;7.956;2023-01-01T00:30:49;14.40;;;5.00;;
5121;SDS011;2563;52.242;7.956;2023-01-01T00:33:14;13.30;;;5.30;;
5121;SDS011;2563;52.242;7.956;2023-01-01T00:35:40;19.53;;;5.57;;
5121;SDS011;2563;52.242;7.956;2023-01-01T00:38:05;17.33;;;4.73;;
5121;SDS011;2563;52.242;7.956;2023-01-01T00:40:31;12.80;;;5.07;;
5121;SDS011;2563;52.242;7.956;2023-01-01T00:42:57;15.97;;;4.50;;
5121;SDS011;2563;52.242;7.956;2023-01-01T00:45:22;8.80;;;4.80;;
5121;SDS011;2563;52.242;7.956;2023-01-01T00:47:51;9.33;;;4.10;;
5121;SDS011;2563;52.242;7.956;2023-01-01T00:50:18;10.30;;;4.00;;
5121;SDS011;2563;52.242;7.956;2023-01-01T00:52:45;14.60;;;5.17;;
5121;SDS011;2563;52.242;7.956;2023-01-01T00:55:10;13.00;;;3.80;;
5121;SDS011;2563;52.242;7.956;2023-01-01T00:57:36;17.93;;;4.93;;
5121;SDS011;2563;52.242;7.956;2023-01-01T01:00:02;10.73;;;4.40;;
5121;SDS011;2563;52.242;7.956;2023-01-01T01:02:28;14.97;;;5.20;;
5121;SDS011;2563;52.242;7.956;2023-01-01T01:04:53;17.53;;;5.60;;
5121;SDS011;2563;52.242;7.956;2023-01-01T01:07:19;10.80;;;4.40;;
5121;SDS011;2563;52.242;7.956;2023-01-01T01:09:44;13.73;;;5.40;;
5121;SDS011;2563;52.242;7.956;2023-01-01T01:12:09;14.73;;;5.80;;
5121;SDS011;2563;52.242;7.956;2023-01-01T01:14:35;15.13;;;6.00;;
5121;SDS011;2563;52.242;7.956;2023-01-01T01:17:00;15.10;;;5.30;;
5121;SDS011;2563;52.242;7.956;2023-01-01T01:19:25;14.73;;;6.10;;
5121;SDS011;2563;52.242;7.956;2023-01-01T01:21:51;16.60;;;6.67;;
5121;SDS011;2563;52.242;7.956;2023-01-01T01:24:16;16.80;;;7.93;;
5121;SDS011;2563;52.242;7.956;2023-01-01T01:26:42;13.07;;;6.63;;
5121;SDS011;2563;52.242;7.956;2023-01-01T01:29:07;18.77;;;6.80;;
5121;SDS011;2563;52.242;7.956;2023-01-01T01:31:33;16.30;;;6.73;;
5121;SDS011;2563;52.242;7.956;2023-01-01T01:33:59;15.93;;;6.67;;
5121;SDS011;2563;52.242;7.956;2023-01-01T01:36:25;21.67;;;6.47;;
5121;SDS011;2563;52.242;7.956;2023-01-01T01:38:51;17.60;;;6.50;;
5121;SDS011;2563;52.242;7.956;2023-01-01T01:41:20;24.00;;;6.67;;
5121;SDS011;2563;52.242;7.956;2023-01-01T01:46:25;16.73;;;7.67;;
5121;SDS011;2563;52.242;7.956;2023-01-01T01:48:58;17.13;;;7.10;;
5121;SDS011;2563;52.242;7.956;2023-01-01T01:51:29;13.23;;;7.00;;
5121;SDS011;2563;52.242;7.956;2023-01-01T01:54:06;12.40;;;5.93;;
5121;SDS011;2563;52.242;7.956;2023-01-01T01:57:08;12.73;;;5.53;;
5121;SDS011;2563;52.242;7.956;2023-01-01T01:59:38;21.53;;;6.27;;
5121;SDS011;2563;52.242;7.956;2023-01-01T02:02:31;17.83;;;6.63;;
5121;SDS011;2563;52.242;7.956;2023-01-01T02:04:58;13.63;;;5.37;;
5121;SDS011;2563;52.242;7.956;2023-01-01T02:07:24;21.70;;;6.30;;
5121;SDS011;2563;52.242;7.956;2023-01-01T02:09:50;14.60;;;6.03;;
5121;SDS011;2563;52.242;7.956;2023-01-01T02:12:16;18.60;;;6.10;;
5121;SDS011;2563;52.242;7.956;2023-01-01T02:14:41;14.67;;;5.93;;
5121;SDS011;2563;52.242;7.956;2023-01-01T02:17:15;20.43;;;6.90;;
5121;SDS011;2563;52.242;7.956;2023-01-01T02:19:59;26.03;;;6.60;;
5121;SDS011;2563;52.242;7.956;2023-01-01T02:30:38;23.10;;;8.43;;
5121;SDS011;2563;52.242;7.956;2023-01-01T02:33:08;20.77;;;5.53;;
5121;SDS011;2563;52.242;7.956;2023-01-01T02:35:39;21.63;;;6.10;;
5121;SDS011;2563;52.242;7.956;2023-01-01T02:38:11;13.13;;;5.10;;
5121;SDS011;2563;52.242;7.956;2023-01-01T02:40:45;14.83;;;5.50;;
5121;SDS011;2563;52.242;7.956;2023-01-01T02:43:13;11.87;;;4.47;;
5121;SDS011;2563;52.242;7.956;2023-01-01T02:45:39;15.63;;;5.60;;
5121;SDS011;2563;52.242;7.956;2023-01-01T02:48:05;14.00;;;5.10;;
5121;SDS011;2563;52.242;7.956;2023-01-01T02:50:51;9.93;;;4.80;;
5121;SDS011;2563;52.242;7.956;2023-01-01T03:04:06;13.30;;;4.47;;
5121;SDS011;2563;52.242;7.956;2023-01-01T03:09:22;20.47;;;4.63;;
5121;SDS011;2563;52.242;7.956;2023-01-01T03:12:05;17.30;;;5.00;;
5121;SDS011;2563;52.242;7.956;2023-01-01T03:17:20;12.30;;;3.90;;
5121;SDS011;2563;52.242;7.956;2023-01-01T03:19:47;8.77;;;3.23;;
5121;SDS011;2563;52.242;7.956;2023-01-01T03:22:15;16.37;;;3.90;;
5121;SDS011;2563;52.242;7.956;2023-01-01T03:24:46;9.90;;;2.90;;
5121;SDS011;2563;52.242;7.956;2023-01-01T03:29:48;6.77;;;2.67;;
5121;SDS011;2563;52.242;7.956;2023-01-01T03:32:17;14.83;;;3.67;;
5121;SDS011;2563;52.242;7.956;2023-01-01T03:34:49;6.37;;;2.50;;
5121;SDS011;2563;52.242;7.956;2023-01-01T03:37:20;8.53;;;2.67;;
5121;SDS011;2563;52.242;7.956;2023-01-01T03:39:50;9.70;;;2.57;;
5121;SDS011;2563;52.242;7.956;2023-01-01T03:42:39;9.60;;;2.60;;
5121;SDS011;2563;52.242;7.956;2023-01-01T03:45:23;8.83;;;2.60;;
5121;SDS011;2563;52.242;7.956;2023-01-01T03:47:54;10.10;;;2.73;;
5121;SDS011;2563;52.242;7.956;2023-01-01T03:50:20;7.60;;;2.60;;
5121;SDS011;2563;52.242;7.956;2023-01-01T03:53:07;12.93;;;2.57;;
5121;SDS011;2563;52.242;7.956;2023-01-01T03:55:48;6.93;;;2.17;;
5121;SDS011;2563;52.242;7.956;2023-01-01T03:58:26;8.90;;;3.20;;
5121;SDS011;2563;52.242;7.956;2023-01-01T04:01:33;6.93;;;2.60;;
5121;SDS011;2563;52.242;7.956;2023-01-01T04:03:54;8.07;;;2.57;;
5121;SDS011;2563;52.242;7.956;2023-01-01T04:06:21;6.90;;;2.40;;
5121;SDS011;2563;52.242;7.956;2023-01-01T04:08:47;12.53;;;2.60;;
5121;SDS011;2563;52.242;7.956;2023-01-01T04:11:20;13.30;;;3.80;;
5121;SDS011;2563;52.242;7.956;2023-01-01T04:14:07;10.80;;;3.03;;
5121;SDS011;2563;52.242;7.956;2023-01-01T04:16:33;8.70;;;3.37;;
5121;SDS011;2563;52.242;7.956;2023-01-01T04:18:58;9.43;;;2.60;;
5121;SDS011;2563;52.242;7.956;2023-01-01T04:21:23;10.77;;;2.63;;
5121;SDS011;2563;52.242;7.956;2023-01-01T04:23:49;7.93;;;2.90;;
5121;SDS011;2563;52.242;7.956;2023-01-01T04:26:14;10.17;;;2.80;;
5121;SDS011;2563;52.242;7.956;2023-01-01T04:28:40;8.40;;;3.03;;
5121;SDS011;2563;52.242;7.956;2023-01-01T04:31:06;9.07;;;2.67;;
5121;SDS011;2563;52.242;7.956;2023-01-01T04:33:32;5.90;;;2.43;;
5121;SDS011;2563;52.242;7.956;2023-01-01T04:36:07;9.30;;;3.30;;
5121;SDS011;2563;52.242;7.956;2023-01-01T04:38:34;8.83;;;2.47;;
5121;SDS011;2563;52.242;7.956;2023-01-01T04:41:01;6.70;;;2.63;;
5121;SDS011;2563;52.242;7.956;2023-01-01T04:43:28;8.77;;;2.33;;
5121;SDS011;2563;52.242;7.956;2023-01-01T04:45:57;14.87;;;2.97;;
5121;SDS011;2563;52.242;7.956;2023-01-01T04:48:25;18.33;;;3.20;;
5121;SDS011;2563;52.242;7.956;2023-01-01T04:50:54;6.37;;;2.27;;
5121;SDS011;2563;52.242;7.956;2023-01-01T04:53:24;6.10;;;2.47;;
5121;SDS011;2563;52.242;7.956;2023-01-01T04:55:53;6.63;;;2.10;;
5121;SDS011;2563;52.242;7.956;2023-01-01T04:58:18;6.27;;;2.10;;
5121;SDS011;2563;52.242;7.956;2023-01-01T05:00:47;8.93;;;2.20;;
5121;SDS011;2563;52.242;7.956;2023-01-01T05:03:13;7.33;;;2.20;;
5121;SDS011;2563;52.242;7.956;2023-01-01T05:05:39;6.60;;;2.20;;
5121;SDS011;2563;52.242;7.956;2023-01-01T05:08:04;4.47;;;1.90;;
5121;SDS011;2563;52.242;7.956;2023-01-01T05:10:29;6.13;;;2.00;;
5121;SDS011;2563;52.242;7.956;2023-01-01T05:12:55;11.70;;;3.07;;
5121;SDS011;2563;52.242;7.956;2023-01-01T05:15:20;13.93;;;1.90;;
5121;SDS011;2563;52.242;7.956;2023-01-01T05:17:45;2.57;;;1.20;;
5121;SDS011;2563;52.242;7.956;2023-01-01T05:20:12;8.97;;;1.63;;
5121;SDS011;2563;52.242;7.956;2023-01-01T05:22:37;10.47;;;1.80;;
5121;SDS011;2563;52.242;7.956;2023-01-01T05:25:02;4.90;;;1.53;;
5121;SDS011;2563;52.242;7.956;2023-01-01T05:27:28;4.90;;;1.97;;
5121;SDS011;2563;52.242;7.956;2023-01-01T05:29:53;7.20;;;1.77;;
5121;SDS011;2563;52.242;7.956;2023-01-01T05:32:19;4.40;;;1.50;;
5121;SDS011;2563;52.242;7.956;2023-01-01T05:34:44;6.27;;;1.90;;
5121;SDS011;2563;52.242;7.956;2023-01-01T05:37:09;7.60;;;1.70;;
5121;SDS011;2563;52.242;7.956;2023-01-01T05:39:35;20.07;;;2.03;;
5121;SDS011;2563;52.242;7.956;2023-01-01T05:42:01;8.73;;;1.30;;
5121;SDS011;2563;52.242;7.956;2023-01-01T05:44:26;5.53;;;1.43;;
5121;SDS011;2563;52.242;7.956;2023-01-01T05:46:52;6.20;;;1.97;;
5121;SDS011;2563;52.242;7.956;2023-01-01T05:49:17;2.80;;;1.20;;
5121;SDS011;2563;52.242;7.956;2023-01-01T05:51:43;5.03;;;1.53;;
5121;SDS011;2563;52.242;7.956;2023-01-01T05:54:08;10.20;;;1.67;;
5121;SDS011;2563;52.242;7.956;2023-01-01T05:56:34;5.80;;;1.50;;
5121;SDS011;2563;52.242;7.956;2023-01-01T05:58:59;4.57;;;1.73;;
5121;SDS011;2563;52.242;7.956;2023-01-01T06:01:26;4.87;;;1.90;;
5121;SDS011;2563;52.242;7.956;2023-01-01T06:03:53;8.30;;;1.67;;
5121;SDS011;2563;52.242;7.956;2023-01-01T06:06:20;3.53;;;1.43;;
5121;SDS011;2563;52.242;7.956;2023-01-01T06:08:48;3.50;;;1.20;;
5121;SDS011;2563;52.242;7.956;2023-01-01T06:11:21;5.63;;;1.60;;
5121;SDS011;2563;52.242;7.956;2023-01-01T06:13:46;6.90;;;1.80;;
5121;SDS011;2563;52.242;7.956;2023-01-01T06:16:12;8.87;;;1.70;;
5121;SDS011;2563;52.242;7.956;2023-01-01T06:18:38;8.33;;;1.77;;
5121;SDS011;2563;52.242;7.956;2023-01-01T06:21:10;7.80;;;1.77;;
5121;SDS011;2563;52.242;7.956;2023-01-01T06:23:41;9.43;;;1.87;;
5121;SDS011;2563;52.242;7.956;2023-01-01T06:28:37;10.07;;;1.50;;
5121;SDS011;2563;52.242;7.956;2023-01-01T06:31:03;9.73;;;1.50;;
5121;SDS011;2563;52.242;7.956;2023-01-01T06:33:30;4.70;;;1.20;;
5121;SDS011;2563;52.242;7.956;2023-01-01T06:35:56;7.60;;;1.77;;
5121;SDS011;2563;52.242;7.956;2023-01-01T06:38:21;6.97;;;1.63;;
5121;SDS011;2563;52.242;7.956;2023-01-01T06:40:54;3.50;;;1.40;;
5121;SDS011;2563;52.242;7.956;2023-01-01T06:43:23;10.17;;;1.33;;
5121;SDS011;2563;52.242;7.956;2023-01-01T06:45:57;7.20;;;1.97;;
5121;SDS011;2563;52.242;7.956;2023-01-01T06:48:23;2.93;;;1.13;;
5121;SDS011;2563;52.242;7.956;2023-01-01T06:50:49;3.57;;;1.30;;
5121;SDS011;2563;52.242;7.956;2023-01-01T06:53:14;9.00;;;1.47;;
5121;SDS011;2563;52.242;7.956;2023-01-01T06:55:40;8.13;;;1.67;;
5121;SDS011;2563;52.242;7.956;2023-01-01T06:58:12;4.20;;;1.50;;
5121;SDS011;2563;52.242;7.956;2023-01-01T07:00:38;11.00;;;1.70;;
5121;SDS011;2563;52.242;7.956;2023-01-01T07:03:03;7.83;;;2.53;;
5121;SDS011;2563;52.242;7.956;2023-01-01T07:05:29;5.83;;;1.40;;
5121;SDS011;2563;52.242;7.956;2023-01-01T07:07:54;6.63;;;1.93;;
5121;SDS011;2563;52.242;7.956;2023-01-01T07:10:19;9.97;;;1.90;;
5121;SDS011;2563;52.242;7.956;2023-01-01T07:12:44;7.40;;;1.37;;
5121;SDS011;2563;52.242;7.956;2023-01-01T07:15:10;4.90;;;1.33;;
5121;SDS011;2563;52.242;7.956;2023-01-01T07:17:36;6.13;;;1.80;;
5121;SDS011;2563;52.242;7.956;2023-01-01T07:20:01;6.70;;;2.00;;
5121;SDS011;2563;52.242;7.956;2023-01-01T07:22:26;7.77;;;1.60;;
5121;SDS011;2563;52.242;7.956;2023-01-01T07:24:52;6.43;;;1.60;;
5121;SDS011;2563;52.242;7.956;2023-01-01T07:27:17;8.80;;;1.60;;
5121;SDS011;2563;52.242;7.956;2023-01-01T07:29:42;8.73;;;1.53;;
5121;SDS011;2563;52.242;7.956;2023-01-01T07:32:13;6.17;;;1.80;;
5121;SDS011;2563;52.242;7.956;2023-01-01T07:34:39;12.20;;;1.90;;
5121;SDS011;2563;52.242;7.956;2023-01-01T07:37:04;5.00;;;1.73;;
5121;SDS011;2563;52.242;7.956;2023-01-01T07:39:29;4.43;;;1.50;;
5121;SDS011;2563;52.242;7.956;2023-01-01T07:41:55;8.73;;;1.60;;
5121;SDS011;2563;52.242;7.956;2023-01-01T07:44:20;16.07;;;2.73;;
5121;SDS011;2563;52.242;7.956;2023-01-01T07:46:45;7.63;;;2.00;;
5121;SDS011;2563;52.242;7.956;2023-01-01T07:49:11;5.37;;;2.33;;
5121;SDS011;2563;52.242;7.956;2023-01-01T07:51:36;5.20;;;1.30;;
5121;SDS011;2563;52.242;7.956;2023-01-01T07:54:01;6.33;;;1.90;;
5121;SDS011;2563;52.242;7.956;2023-01-01T07:56:27;7.37;;;2.10;;
5121;SDS011;2563;52.242;7.956;2023-01-01T07:58:52;6.20;;;1.93;;
5121;SDS011;2563;52.242;7.956;2023-01-01T08:01:17;5.90;;;1.50;;
5121;SDS011;2563;52.242;7.956;2023-01-01T08:03:43;6.63;;;1.70;;
5121;SDS011;2563;52.242;7.956;2023-01-01T08:06:09;5.30;;;1.63;;
5121;SDS011;2563;52.242;7.956;2023-01-01T08:08:35;6.90;;;1.73;;
5121;SDS011;2563;52.242;7.956;2023-01-01T08:11:01;5.73;;;1.50;;
5121;SDS011;2563;52.242;7.956;2023-01-01T08:13:27;6.13;;;1.60;;
5121;SDS011;2563;52.242;7.956;2023-01-01T08:15:53;4.23;;;1.40;;
5121;SDS011;2563;52.242;7.956;2023-01-01T08:18:19;10.03;;;2.30;;
5121;SDS011;2563;52.242;7.956;2023-01-01T08:20:45;6.90;;;1.80;;
5121;SDS011;2563;52.242;7.956;2023-01-01T08:23:10;6.47;;;1.30;;
5121;SDS011;2563;52.242;7.956;2023-01-01T08:25:36;10.33;;;1.70;;
5121;SDS011;2563;52.242;7.956;2023-01-01T08:28:01;3.73;;;1.10;;
5121;SDS011;2563;52.242;7.956;2023-01-01T08:30:26;4.90;;;0.90;;
5121;SDS011;2563;52.242;7.956;2023-01-01T08:32:52;6.80;;;1.00;;
5121;SDS011;2563;52.242;7.956;2023-01-01T08:35:17;4.73;;;1.07;;
5121;SDS011;2563;52.242;7.956;2023-01-01T08:37:42;5.00;;;0.80;;
5121;SDS011;2563;52.242;7.956;2023-01-01T08:40:09;2.90;;;0.97;;
5121;SDS011;2563;52.242;7.956;2023-01-01T08:42:36;2.60;;;0.90;;
5121;SDS011;2563;52.242;7.956;2023-01-01T08:45:02;2.63;;;1.00;;
5121;SDS011;2563;52.242;7.956;2023-01-01T08:47:27;6.40;;;0.93;;
5121;SDS011;2563;52.242;7.956;2023-01-01T08:49:53;2.67;;;1.07;;
5121;SDS011;2563;52.242;7.956;2023-01-01T08:52:18;4.33;;;1.57;;
5121;SDS011;2563;52.242;7.956;2023-01-01T08:54:44;5.57;;;1.50;;
5121;SDS011;2563;52.242;7.956;2023-01-01T08:57:10;6.70;;;1.00;;
5121;SDS011;2563;52.242;7.956;2023-01-01T08:59:35;4.50;;;1.30;;
5121;SDS011;2563;52.242;7.956;2023-01-01T09:02:01;3.20;;;1.07;;
5121;SDS011;2563;52.242;7.956;2023-01-01T09:04:27;4.40;;;1.33;;
5121;SDS011;2563;52.242;7.956;2023-01-01T09:06:52;6.17;;;1.43;;
5121;SDS011;2563;52.242;7.956;2023-01-01T09:09:17;7.00;;;1.50;;
5121;SDS011;2563;52.242;7.956;2023-01-01T09:11:52;5.57;;;1.53;;
5121;SDS011;2563;52.242;7.956;2023-01-01T09:14:20;7.10;;;1.37;;
5121;SDS011;2563;52.242;7.956;2023-01-01T09:16:46;5.27;;;1.60;;
5121;SDS011;2563;52.242;7.956;2023-01-01T09:19:11;4.50;;;1.87;;
5121;SDS011;2563;52.242;7.956;2023-01-01T09:21:37;6.33;;;2.23;;
5121;SDS011;2563;52.242;7.956;2023-01-01T09:24:03;6.63;;;2.23;;
5121;SDS011;2563;52.242;7.956;2023-01-01T09:26:28;5.67;;;1.80;;
5121;SDS011;2563;52.242;7.956;2023-01-01T09:28:54;9.73;;;1.83;;
5121;SDS011;2563;52.242;7.956;2023-01-01T09:31:19;9.90;;;2.10;;
5121;SDS011;2563;52.242;7.956;2023-01-01T09:33:44;13.87;;;1.70;;
5121;SDS011;2563;52.242;7.956;2023-01-01T09:36:11;7.07;;;2.00;;
5121;SDS011;2563;52.242;7.956;2023-01-01T09:38:50;6.70;;;1.80;;
5121;SDS011;2563;52.242;7.956;2023-01-01T09:46:32;5.03;;;2.10;;
5121;SDS011;2563;52.242;7.956;2023-01-01T09:49:43;6.60;;;2.13;;
5121;SDS011;2563;52.242;7.956;2023-01-01T09:51:56;6.77;;;2.20;;
5121;SDS011;2563;52.242;7.956;2023-01-01T09:54:29;11.70;;;2.50;;
5121;SDS011;2563;52.242;7.956;2023-01-01T09:56:58;6.57;;;2.37;;
5121;SDS011;2563;52.242;7.956;2023-01-01T09:59:26;5.00;;;1.80;;
5121;SDS011;2563;52.242;7.956;2023-01-01T10:01:56;11.07;;;2.57;;
5121;SDS011;2563;52.242;7.956;2023-01-01T10:04:46;6.13;;;2.23;;
5121;SDS011;2563;52.242;7.956;2023-01-01T10:07:22;10.83;;;2.13;;
5121;SDS011;2563;52.242;7.956;2023-01-01T10:10:02;9.17;;;2.17;;
5121;SDS011;2563;52.242;7.956;2023-01-01T10:15:41;9.63;;;2.00;;
5121;SDS011;2563;52.242;7.956;2023-01-01T10:18:16;9.47;;;1.77;;
5121;SDS011;2563;52.242;7.956;2023-01-01T10:21:00;7.40;;;2.50;;
5121;SDS011;2563;52.242;7.956;2023-01-01T10:23:38;13.33;;;3.07;;
5121;SDS011;2563;52.242;7.956;2023-01-01T10:26:08;3.90;;;1.50;;
5121;SDS011;2563;52.242;7.956;2023-01-01T10:28:47;8.33;;;2.17;;
5121;SDS011;2563;52.242;7.956;2023-01-01T10:33:44;6.20;;;2.07;;
5121;SDS011;2563;52.242;7.956;2023-01-01T10:36:12;8.00;;;2.23;;
5121;SDS011;2563;52.242;7.956;2023-01-01T10:38:40;8.17;;;2.30;;
5121;SDS011;2563;52.242;7.956;2023-01-01T10:41:06;6.90;;;2.00;;
5121;SDS011;2563;52.242;7.956;2023-01-01T10:43:34;7.40;;;2.33;;
5121;SDS011;2563;52.242;7.956;2023-01-01T10:45:59;6.60;;;1.40;;
5121;SDS011;2563;52.242;7.956;2023-01-01T10:48:27;9.23;;;1.83;;
5121;SDS011;2563;52.242;7.956;2023-01-01T10:50:57;5.53;;;1.50;;
5121;SDS011;2563;52.242;7.956;2023-01-01T10:53:33;11.17;;;1.77;;
5121;SDS011;2563;52.242;7.956;2023-01-01T10:56:09;4.40;;;1.27;;
5121;SDS011;2563;52.242;7.956;2023-01-01T10:58:55;6.47;;;1.60;;
5121;SDS011;2563;52.242;7.956;2023-01-01T11:01:30;4.40;;;1.30;;
5121;SDS011;2563;52.242;7.956;2023-01-01T11:06:44;6.60;;;1.20;;
5121;SDS011;2563;52.242;7.956;2023-01-01T11:09:21;7.77;;;1.27;;
5121;SDS011;2563;52.242;7.956;2023-01-01T11:11:55;3.70;;;0.97;;
5121;SDS011;2563;52.242;7.956;2023-01-01T11:14:25;4.47;;;1.60;;
5121;SDS011;2563;52.242;7.956;2023-01-01T11:16:51;4.37;;;1.33;;
5121;SDS011;2563;52.242;7.956;2023-01-01T11:19:28;6.83;;;1.17;;
5121;SDS011;2563;52.242;7.956;2023-01-01T11:22:01;10.00;;;1.53;;
5121;SDS011;2563;52.242;7.956;2023-01-01T11:24:28;5.20;;;1.60;;
5121;SDS011;2563;52.242;7.956;2023-01-01T11:29:39;5.70;;;1.23;;
5121;SDS011;2563;52.242;7.956;2023-01-01T11:32:05;6.40;;;1.53;;
5121;SDS011;2563;52.242;7.956;2023-01-01T11:34:34;7.10;;;1.40;;
5121;SDS011;2563;52.242;7.956;2023-01-01T11:39:50;5.40;;;1.30;;
5121;SDS011;2563;52.242;7.956;2023-01-01T11:42:23;7.43;;;1.30;;
5121;SDS011;2563;52.242;7.956;2023-01-01T11:44:53;8.50;;;1.30;;
5121;SDS011;2563;52.242;7.956;2023-01-01T11:50:24;8.30;;;1.57;;
5121;SDS011;2563;52.242;7.956;2023-01-01T11:52:46;6.70;;;1.70;;
5121;SDS011;2563;52.242;7.956;2023-01-01T11:57:39;5.27;;;1.30;;
5121;SDS011;2563;52.242;7.956;2023-01-01T12:00:11;13.80;;;3.23;;
5121;SDS011;2563;52.242;7.956;2023-01-01T12:02:41;5.33;;;1.23;;
5121;SDS011;2563;52.242;7.956;2023-01-01T12:05:15;7.03;;;1.37;;
5121;SDS011;2563;52.242;7.956;2023-01-01T12:07:46;10.27;;;2.60;;
5121;SDS011;2563;52.242;7.956;2023-01-01T12:10:16;3.20;;;1.03;;
5121;SDS011;2563;52.242;7.956;2023-01-01T12:12:56;6.27;;;1.70;;
5121;SDS011;2563;52.242;7.956;2023-01-01T12:15:26;6.00;;;1.97;;
5121;SDS011;2563;52.242;7.956;2023-01-01T12:18:17;10.97;;;1.77;;
5121;SDS011;2563;52.242;7.956;2023-01-01T12:23:40;7.73;;;1.43;;
5121;SDS011;2563;52.242;7.956;2023-01-01T12:28:50;5.27;;;1.83;;
5121;SDS011;2563;52.242;7.956;2023-01-01T12:31:23;8.90;;;1.90;;
5121;SDS011;2563;52.242;7.956;2023-01-01T12:37:07;9.90;;;2.93;;
5121;SDS011;2563;52.242;7.956;2023-01-01T12:42:59;7.30;;;2.53;;
5121;SDS011;2563;52.242;7.956;2023-01-01T12:53:58;6.63;;;2.73;;
5121;SDS011;2563;52.242;7.956;2023-01-01T12:56:43;6.80;;;2.13;;
5121;SDS011;2563;52.242;7.956;2023-01-01T12:59:19;10.40;;;2.70;;
5121;SDS011;2563;52.242;7.956;2023-01-01T13:01:50;10.07;;;2.70;;
5121;SDS011;2563;52.242;7.956;2023-01-01T13:04:20;9.50;;;3.17;;
5121;SDS011;2563;52.242;7.956;2023-01-01T13:09:29;8.53;;;2.80;;
5121;SDS011;2563;52.242;7.956;2023-01-01T13:12:05;8.60;;;3.03;;
5121;SDS011;2563;52.242;7.956;2023-01-01T13:14:44;6.83;;;2.50;;
5121;SDS011;2563;52.242;7.956;2023-01-01T13:17:32;15.10;;;3.70;;
5121;SDS011;2563;52.242;7.956;2023-01-01T13:20:19;6.90;;;3.03;;
5121;SDS011;2563;52.242;7.956;2023-01-01T13:22:47;9.97;;;2.20;;
5121;SDS011;2563;52.242;7.956;2023-01-01T13:42:00;9.57;;;2.67;;
5121;SDS011;2563;52.242;7.956;2023-01-01T13:57:11;10.80;;;1.87;;
5121;SDS011;2563;52.242;7.956;2023-01-01T14:07:03;9.77;;;1.80;;
5121;SDS011;2563;52.242;7.956;2023-01-01T14:09:46;12.07;;;1.90;;
5121;SDS011;2563;52.242;7.956;2023-01-01T14:12:18;6.23;;;1.70;;
5121;SDS011;2563;52.242;7.956;2023-01-01T14:14:45;7.23;;;1.80;;
5121;SDS011;2563;52.242;7.956;2023-01-01T14:17:12;11.10;;;2.80;;
5121;SDS011;2563;52.242;7.956;2023-01-01T14:19:39;7.93;;;2.10;;
5121;SDS011;2563;52.242;7.956;2023-01-01T14:22:09;7.57;;;2.30;;
5121;SDS011;2563;52.242;7.956;2023-01-01T14:24:42;6.83;;;1.93;;
5121;SDS011;2563;52.242;7.956;2023-01-01T14:27:19;11.00;;;2.67;;
5121;SDS011;2563;52.242;7.956;2023-01-01T14:29:46;8.83;;;1.97;;
5121;SDS011;2563;52.242;7.956;2023-01-01T14:32:17;6.43;;;1.90;;
5121;SDS011;2563;52.242;7.956;2023-01-01T14:34:48;8.77;;;2.40;;
5121;SDS011;2563;52.242;7.956;2023-01-01T14:37:23;6.63;;;2.07;;
5121;SDS011;2563;52.242;7.956;2023-01-01T14:42:33;7.53;;;1.77;;
5121;SDS011;2563;52.242;7.956;2023-01-01T14:45:00;10.90;;;2.60;;
5121;SDS011;2563;52.242;7.956;2023-01-01T14:47:31;10.27;;;2.13;;
5121;SDS011;2563;52.242;7.956;2023-01-01T14:50:10;7.57;;;2.07;;
5121;SDS011;2563;52.242;7.956;2023-01-01T14:52:42;7.53;;;1.97;;
5121;SDS011;2563;52.242;7.956;2023-01-01T14:55:11;7.83;;;2.37;;
5121;SDS011;2563;52.242;7.956;2023-01-01T14:57:43;7.17;;;1.93;;
5121;SDS011;2563;52.242;7.956;2023-01-01T15:00:22;6.17;;;1.93;;
5121;SDS011;2563;52.242;7.956;2023-01-01T15:02:49;10.00;;;2.20;;
5121;SDS011;2563;52.242;7.956;2023-01-01T15:07:55;6.53;;;2.33;;
5121;SDS011;2563;52.242;7.956;2023-01-01T15:10:22;13.53;;;2.97;;
5121;SDS011;2563;52.242;7.956;2023-01-01T15:12:48;5.23;;;2.10;;
5121;SDS011;2563;52.242;7.956;2023-01-01T15:18:01;8.70;;;2.30;;
5121;SDS011;2563;52.242;7.956;2023-01-01T15:20:26;7.10;;;2.17;;
5121;SDS011;2563;52.242;7.956;2023-01-01T15:22:52;12.40;;;2.33;;
5121;SDS011;2563;52.242;7.956;2023-01-01T15:25:18;9.87;;;2.73;;
5121;SDS011;2563;52.242;7.956;2023-01-01T15:27:48;10.43;;;2.80;;
5121;SDS011;2563;52.242;7.956;2023-01-01T15:30:48;8.70;;;3.03;;
5121;SDS011;2563;52.242;7.956;2023-01-01T15:33:07;6.90;;;2.20;;
5121;SDS011;2563;52.242;7.956;2023-01-01T15:35:37;6.00;;;2.33;;
5121;SDS011;2563;52.242;7.956;2023-01-01T15:38:10;11.47;;;2.93;;
5121;SDS011;2563;52.242;7.956;2023-01-01T15:40:50;8.63;;;2.40;;
5121;SDS011;2563;52.242;7.956;2023-01-01T15:45:53;7.80;;;2.00;;
5121;SDS011;2563;52.242;7.956;2023-01-01T15:48:36;11.03;;;2.80;;
5121;SDS011;2563;52.242;7.956;2023-01-01T15:51:11;9.80;;;2.10;;
5121;SDS011;2563;52.242;7.956;2023-01-01T15:53:56;9.17;;;2.77;;
5121;SDS011;2563;52.242;7.956;2023-01-01T15:56:31;8.53;;;2.30;;
5121;SDS011;2563;52.242;7.956;2023-01-01T15:59:04;7.30;;;2.53;;
5121;SDS011;2563;52.242;7.956;2023-01-01T16:01:39;9.30;;;2.03;;
5121;SDS011;2563;52.242;7.956;2023-01-01T16:04:07;8.80;;;2.60;;
5121;SDS011;2563;52.242;7.956;2023-01-01T16:06:42;8.53;;;2.70;;
5121;SDS011;2563;52.242;7.956;2023-01-01T16:09:12;11.87;;;3.20;;
5121;SDS011;2563;52.242;7.956;2023-01-01T16:11:39;8.47;;;3.43;;
5121;SDS011;2563;52.242;7.956;2023-01-01T16:14:05;11.97;;;2.70;;
5121;SDS011;2563;52.242;7.956;2023-01-01T16:16:31;9.07;;;2.27;;
5121;SDS011;2563;52.242;7.956;2023-01-01T16:18:57;9.10;;;3.57;;
5121;SDS011;2563;52.242;7.956;2023-01-01T16:21:23;5.30;;;2.50;;
5121;SDS011;2563;52.242;7.956;2023-01-01T16:23:51;7.20;;;2.27;;
5121;SDS011;2563;52.242;7.956;2023-01-01T16:26:17;7.53;;;2.63;;
5121;SDS011;2563;52.242;7.956;2023-01-01T16:28:42;8.37;;;2.90;;
5121;SDS011;2563;52.242;7.956;2023-01-01T16:31:15;11.00;;;2.93;;
5121;SDS011;2563;52.242;7.956;2023-01-01T16:33:43;7.97;;;2.87;;
5121;SDS011;2563;52.242;7.956;2023-01-01T16:36:17;12.43;;;2.63;;
5121;SDS011;2563;52.242;7.956;2023-01-01T16:38:42;11.27;;;3.10;;
5121;SDS011;2563;52.242;7.956;2023-01-01T16:41:14;6.70;;;2.40;;
5121;SDS011;2563;52.242;7.956;2023-01-01T16:43:41;16.77;;;3.47;;
5121;SDS011;2563;52.242;7.956;2023-01-01T16:46:07;14.57;;;4.33;;
5121;SDS011;2563;52.242;7.956;2023-01-01T16:48:33;16.10;;;5.10;;
5121;SDS011;2563;52.242;7.956;2023-01-01T16:50:58;19.07;;;5.07;;
5121;SDS011;2563;52.242;7.956;2023-01-01T16:53:23;10.60;;;3.90;;
5121;SDS011;2563;52.242;7.956;2023-01-01T16:55:49;14.83;;;3.07;;
5121;SDS011;2563;52.242;7.956;2023-01-01T16:58:15;6.27;;;2.77;;
5121;SDS011;2563;52.242;7.956;2023-01-01T17:00:41;10.37;;;2.83;;
5121;SDS011;2563;52.242;7.956;2023-01-01T17:03:06;7.03;;;2.60;;
5121;SDS011;2563;52.242;7.956;2023-01-01T17:05:34;13.63;;;3.90;;
5121;SDS011;2563;52.242;7.956;2023-01-01T17:08:00;9.20;;;3.37;;
5121;SDS011;2563;52.242;7.956;2023-01-01T17:10:26;12.70;;;3.40;;
5121;SDS011;2563;52.242;7.956;2023-01-01T17:12:51;15.70;;;4.93;;
5121;SDS011;2563;52.242;7.956;2023-01-01T17:15:16;10.53;;;3.17;;
5121;SDS011;2563;52.242;7.956;2023-01-01T17:17:42;13.10;;;2.83;;
5121;SDS011;2563;52.242;7.956;2023-01-01T17:20:07;9.00;;;3.10;;
5121;SDS011;2563;52.242;7.956;2023-01-01T17:22:33;11.43;;;2.97;;
5121;SDS011;2563;52.242;7.956;2023-01-01T17:24:58;9.47;;;3.27;;
5121;SDS011;2563;52.242;7.956;2023-01-01T17:27:24;9.20;;;2.60;;
5121;SDS011;2563;52.242;7.956;2023-01-01T17:29:49;11.77;;;3.07;;